Time;durP1;ratioP1;P1;durP2;ratioP2;P2;SDS_P1;SDS_P2;PMS_P1;PMS_P2;Temp;Humidity;BMP_temperature;BMP_pressure;BME280_temperature;BME280_humidity;BME280_pressure;Samples;Min_cycle;Max_cycle;Signal;HPM_P1;HPM_P2
2022/03/18 00:02:08;;;;;;;;;2.75;2.75;16.90;99.90;;;;;;5068807;28;11455;-48
2022/03/18 00:04:39;;;;;;;;;6.50;6.50;16.90;99.90;;;;;;5066907;28;13448;-46
2022/03/18 00:07:11;;;;;;;;;8.50;8.50;17.00;99.90;;;;;;5068357;28;11499;-45
2022/03/18 00:09:42;;;;;;;;;12.25;12.25;16.90;99.90;;;;;;5069305;28;11987;-44
2022/03/18 00:12:13;;;;;;;;;11.50;11.50;16.90;99.90;;;;;;5069558;28;10977;-50
2022/03/18 00:14:44;;;;;;;;;9.25;9.25;16.90;99.90;;;;;;5068655;28;11647;-45
2022/03/18 00:17:14;;;;;;;;;16.25;13.25;16.80;99.90;;;;;;5060562;28;11481;-48
2022/03/18 00:19:45;;;;;;;;;19.75;19.50;16.90;99.90;;;;;;5064970;28;11506;-48
2022/03/18 00:22:16;;;;;;;;;34.25;31.25;16.90;99.90;;;;;;5061736;28;13003;-49
2022/03/18 00:24:46;;;;;;;;;43.50;37.75;16.80;99.90;;;;;;5068745;28;11564;-46
2022/03/18 00:27:18;;;;;;;;;41.75;36.75;16.80;99.90;;;;;;5059476;28;11605;-49
2022/03/18 00:29:48;;;;;;;;;37.00;32.75;16.70;99.90;;;;;;5066388;28;11602;-48
2022/03/18 00:32:18;;;;;;;;;36.75;34.00;16.70;99.90;;;;;;5066619;28;12621;-46
2022/03/18 00:34:49;;;;;;;;;33.25;30.50;16.70;99.90;;;;;;5068786;28;11557;-48
2022/03/18 00:37:21;;;;;;;;;15.75;15.75;16.70;99.90;;;;;;5065126;28;11693;-47
2022/03/18 00:39:53;;;;;;;;;8.75;8.75;16.60;99.90;;;;;;5068936;28;11480;-46
2022/03/18 00:42:23;;;;;;;;;9.00;8.00;16.60;99.90;;;;;;5069440;28;11471;-45
2022/03/18 00:44:53;;;;;;;;;11.25;11.00;16.50;99.90;;;;;;5073955;28;11486;-48
2022/03/18 00:53:03;;;;;;;;;2.00;2.00;16.50;99.90;;;;;;5069807;27;10728;-44
2022/03/18 00:55:34;;;;;;;;;1.25;1.25;16.50;99.90;;;;;;5070763;28;10578;-45
2022/03/18 00:58:05;;;;;;;;;0.00;0.00;16.40;99.90;;;;;;5070318;28;10610;-49
2022/03/18 01:00:36;;;;;;;;;1.00;1.00;16.30;99.90;;;;;;5075819;27;10169;-51
2022/03/18 01:03:07;;;;;;;;;2.00;0.50;16.30;99.90;;;;;;5071411;27;10064;-49
2022/03/18 01:05:37;;;;;;;;;3.00;1.00;16.40;99.90;;;;;;5067414;28;10969;-46
2022/03/18 01:08:08;;;;;;;;;1.25;1.25;16.30;99.90;;;;;;5075526;28;10240;-49
2022/03/18 01:10:39;;;;;;;;;1.75;1.75;16.30;99.90;;;;;;5076756;28;10119;-46
2022/03/18 01:13:10;;;;;;;;;1.00;1.00;16.30;99.90;;;;;;5072131;28;10344;-45
2022/03/18 01:15:41;;;;;;;;;1.75;1.00;16.20;99.90;;;;;;5070184;28;10252;-47
2022/03/18 01:18:12;;;;;;;;;2.00;2.00;16.30;99.90;;;;;;5072539;28;10260;-48
2022/03/18 01:20:43;;;;;;;;;1.50;1.50;16.20;99.90;;;;;;5070476;28;10464;-48
2022/03/18 01:23:15;;;;;;;;;2.75;1.75;16.20;99.90;;;;;;5077575;28;10339;-49
2022/03/18 01:25:46;;;;;;;;;1.00;1.00;16.30;99.90;;;;;;5073908;28;10267;-49
2022/03/18 01:28:17;;;;;;;;;3.00;1.00;16.20;99.90;;;;;;5077419;28;10306;-46
2022/03/18 01:30:48;;;;;;;;;1.00;1.00;16.10;99.90;;;;;;5078885;28;10167;-45
2022/03/18 01:33:19;;;;;;;;;2.00;2.00;16.20;99.90;;;;;;5079437;28;10350;-48
2022/03/18 01:35:50;;;;;;;;;2.00;1.75;16.10;99.90;;;;;;5072852;28;10248;-45
2022/03/18 01:38:21;;;;;;;;;2.00;0.00;16.20;99.90;;;;;;5072540;28;10514;-45
2022/03/18 01:40:52;;;;;;;;;2.00;2.00;16.10;99.90;;;;;;5071696;27;10300;-45
2022/03/18 01:43:22;;;;;;;;;0.25;0.25;16.10;99.90;;;;;;5077283;28;10402;-46
2022/03/18 01:45:53;;;;;;;;;2.50;1.75;16.10;99.90;;;;;;5071122;28;10276;-47
2022/03/18 01:48:24;;;;;;;;;1.00;1.00;16.10;99.90;;;;;;5071436;28;10458;-46
2022/03/18 01:50:54;;;;;;;;;1.00;1.00;16.10;99.90;;;;;;5068764;28;10465;-46
2022/03/18 01:53:25;;;;;;;;;1.00;1.00;16.10;99.90;;;;;;5074368;28;10463;-46
2022/03/18 01:55:56;;;;;;;;;2.00;2.00;16.10;99.90;;;;;;5075445;28;10451;-44
2022/03/18 01:58:26;;;;;;;;;1.00;1.00;16.10;99.90;;;;;;5072169;28;10560;-48
2022/03/18 02:00:56;;;;;;;;;1.00;1.00;16.10;99.90;;;;;;5073083;28;10260;-47
2022/03/18 02:03:27;;;;;;;;;1.00;1.00;16.00;99.90;;;;;;5068018;28;10363;-47
2022/03/18 02:05:58;;;;;;;;;3.00;1.00;16.00;99.90;;;;;;5070810;28;10329;-49
2022/03/18 02:08:30;;;;;;;;;1.00;1.00;15.90;99.90;;;;;;5072049;28;10486;-49
2022/03/18 02:11:01;;;;;;;;;3.25;2.00;15.90;99.90;;;;;;5077003;28;10353;-45
2022/03/18 02:13:31;;;;;;;;;2.75;2.75;15.90;99.90;;;;;;5071655;28;10486;-44
2022/03/18 02:16:04;;;;;;;;;2.00;2.00;15.80;99.90;;;;;;5076137;28;10520;-45
2022/03/18 02:18:35;;;;;;;;;1.75;1.75;15.80;99.90;;;;;;5070849;28;10402;-46
2022/03/18 02:21:06;;;;;;;;;0.75;0.75;15.90;99.90;;;;;;5075216;28;10303;-46
2022/03/18 02:23:37;;;;;;;;;1.00;1.00;15.80;99.90;;;;;;5073081;28;11045;-46
2022/03/18 02:26:07;;;;;;;;;1.00;1.00;15.80;99.90;;;;;;5068904;28;10650;-46
2022/03/18 02:28:38;;;;;;;;;1.00;1.00;15.70;99.90;;;;;;5072508;28;10501;-45
2022/03/18 02:31:08;;;;;;;;;1.75;1.25;15.70;99.90;;;;;;5066039;28;10562;-46
2022/03/18 02:33:38;;;;;;;;;1.50;1.50;15.70;99.90;;;;;;5070964;28;10527;-45
2022/03/18 02:36:09;;;;;;;;;2.00;2.00;15.70;99.90;;;;;;5071555;28;11348;-48
2022/03/18 02:38:41;;;;;;;;;1.00;1.00;15.70;99.90;;;;;;5073911;28;10602;-48
2022/03/18 02:41:15;;;;;;;;;1.00;1.00;15.70;99.90;;;;;;5066883;28;10731;-44
2022/03/18 02:43:44;;;;;;;;;1.00;1.00;15.70;99.90;;;;;;5069307;28;10687;-46
2022/03/18 02:46:17;;;;;;;;;1.50;1.50;15.70;99.90;;;;;;5073519;28;10815;-44
2022/03/18 02:48:48;;;;;;;;;1.00;1.00;15.60;99.90;;;;;;5064079;28;10663;-47
2022/03/18 02:51:19;;;;;;;;;2.00;1.00;15.60;99.90;;;;;;5060210;28;10523;-44
2022/03/18 02:53:51;;;;;;;;;1.00;1.00;15.60;99.90;;;;;;5065287;28;10697;-45
2022/03/18 02:56:23;;;;;;;;;1.00;1.00;15.60;99.90;;;;;;5061496;28;10654;-45
2022/03/18 02:58:55;;;;;;;;;0.00;0.00;15.60;99.90;;;;;;5071953;28;11341;-46
2022/03/18 03:01:26;;;;;;;;;1.00;1.00;15.60;99.90;;;;;;5073432;28;10558;-47
2022/03/18 03:03:59;;;;;;;;;1.75;1.75;15.60;99.90;;;;;;5078537;28;10643;-47
2022/03/18 03:09:20;;;;;;;;;0.25;0.25;15.60;99.90;;;;;;5080325;28;10743;-47
2022/03/18 03:11:51;;;;;;;;;1.00;1.00;15.60;99.90;;;;;;5076077;28;10595;-50
2022/03/18 03:14:21;;;;;;;;;2.50;2.00;15.60;99.90;;;;;;5077817;28;10801;-46
2022/03/18 03:16:52;;;;;;;;;2.50;1.00;15.50;99.90;;;;;;5072372;28;11152;-46
2022/03/18 03:19:24;;;;;;;;;1.50;1.50;15.50;99.90;;;;;;5078010;28;10760;-47
2022/03/18 03:21:57;;;;;;;;;0.50;0.50;15.40;99.90;;;;;;5074642;28;10894;-48
2022/03/18 03:24:28;;;;;;;;;1.75;1.75;15.50;99.90;;;;;;5084478;28;10671;-50
2022/03/18 03:26:58;;;;;;;;;1.00;1.00;15.40;99.90;;;;;;5071283;28;10429;-49
2022/03/18 03:29:29;;;;;;;;;1.00;1.00;15.30;99.90;;;;;;5075680;28;10876;-45
2022/03/18 03:31:59;;;;;;;;;2.25;2.25;15.30;99.90;;;;;;5078682;28;10928;-46
2022/03/18 03:34:29;;;;;;;;;1.00;1.00;15.30;99.90;;;;;;5073888;28;10936;-45
2022/03/18 03:37:02;;;;;;;;;1.00;1.00;15.30;99.90;;;;;;5077490;28;10752;-45
2022/03/18 03:39:32;;;;;;;;;1.00;1.00;15.30;99.90;;;;;;5076807;28;10810;-48
2022/03/18 03:42:02;;;;;;;;;2.00;2.00;15.30;99.90;;;;;;5077629;28;10982;-47
2022/03/18 03:44:32;;;;;;;;;1.00;1.00;15.30;99.90;;;;;;5080706;28;10814;-45
2022/03/18 03:47:02;;;;;;;;;2.50;2.50;15.30;99.90;;;;;;5079395;28;11699;-45
2022/03/18 03:49:32;;;;;;;;;3.50;1.00;15.20;99.90;;;;;;5079833;28;10888;-51
2022/03/18 03:52:02;;;;;;;;;1.00;1.00;15.20;99.90;;;;;;5080444;28;10996;-48
2022/03/18 03:54:32;;;;;;;;;3.75;3.50;15.20;99.90;;;;;;5075956;28;10939;-47
2022/03/18 03:57:04;;;;;;;;;1.00;1.00;15.20;99.90;;;;;;5079798;28;11006;-50
2022/03/18 03:59:35;;;;;;;;;2.75;2.50;15.20;99.90;;;;;;5066650;28;10891;-48
2022/03/18 04:02:08;;;;;;;;;2.25;2.25;15.10;99.90;;;;;;5076491;28;11058;-48
2022/03/18 04:04:39;;;;;;;;;1.50;1.50;15.10;99.90;;;;;;5075154;28;10953;-50
2022/03/18 04:07:11;;;;;;;;;2.00;2.00;15.10;99.90;;;;;;5072665;28;11022;-49
2022/03/18 04:09:42;;;;;;;;;2.25;1.00;15.00;99.90;;;;;;5077230;28;11161;-47
2022/03/18 04:12:13;;;;;;;;;2.50;1.00;15.00;99.90;;;;;;5075869;28;10896;-47
2022/03/18 04:14:45;;;;;;;;;0.50;0.50;15.00;99.90;;;;;;5071988;28;10968;-50
2022/03/18 04:17:15;;;;;;;;;1.75;1.75;15.00;99.90;;;;;;5076368;28;10988;-50
2022/03/18 04:19:46;;;;;;;;;1.50;1.50;14.90;99.90;;;;;;5080486;28;11136;-47
2022/03/18 04:22:17;;;;;;;;;1.50;1.50;14.90;99.90;;;;;;5080018;28;10966;-46
2022/03/18 04:24:48;;;;;;;;;1.50;1.50;14.90;99.90;;;;;;5077548;28;10961;-46
2022/03/18 04:27:21;;;;;;;;;2.00;2.00;14.90;99.90;;;;;;5079836;28;11055;-47
2022/03/18 04:29:51;;;;;;;;;2.00;2.00;14.90;99.90;;;;;;5075093;28;10918;-46
2022/03/18 04:32:21;;;;;;;;;2.00;2.00;14.80;99.90;;;;;;5076301;27;10957;-48
2022/03/18 04:34:52;;;;;;;;;1.00;1.00;14.80;99.90;;;;;;5078186;28;11087;-46
2022/03/18 04:37:23;;;;;;;;;4.00;2.50;14.80;99.90;;;;;;5085614;28;10997;-49
2022/03/18 04:39:56;;;;;;;;;2.00;2.00;14.80;99.90;;;;;;5075631;28;11277;-48
2022/03/18 04:42:27;;;;;;;;;2.00;2.00;14.80;99.90;;;;;;5085445;28;10991;-50
2022/03/18 04:44:57;;;;;;;;;1.00;1.00;14.80;99.90;;;;;;5074906;28;11214;-46
2022/03/18 04:47:29;;;;;;;;;1.00;1.00;14.80;99.90;;;;;;5071841;28;11041;-45
2022/03/18 04:50:01;;;;;;;;;3.75;1.00;14.80;99.90;;;;;;5078588;28;11240;-47
2022/03/18 04:52:32;;;;;;;;;2.50;2.50;14.80;99.90;;;;;;5077417;28;11407;-46
2022/03/18 04:55:04;;;;;;;;;2.00;2.00;14.80;99.90;;;;;;5072670;28;11476;-46
2022/03/18 04:57:36;;;;;;;;;1.75;1.50;14.80;99.90;;;;;;5080171;28;11140;-45
2022/03/18 05:00:07;;;;;;;;;2.25;2.25;14.70;99.90;;;;;;5073692;28;11062;-47
2022/03/18 05:02:38;;;;;;;;;3.75;1.50;14.70;99.90;;;;;;5078341;28;11117;-46
2022/03/18 05:05:10;;;;;;;;;3.25;2.00;14.70;99.90;;;;;;5075822;28;11435;-46
2022/03/18 05:07:44;;;;;;;;;5.25;3.25;14.70;99.90;;;;;;5069737;28;11976;-46
2022/03/18 05:10:14;;;;;;;;;2.25;2.25;14.60;99.90;;;;;;5079673;28;12186;-47
2022/03/18 05:12:45;;;;;;;;;2.50;2.50;14.60;99.90;;;;;;5085640;28;11103;-49
2022/03/18 05:15:16;;;;;;;;;1.00;1.00;14.50;99.90;;;;;;5086561;27;11452;-46
2022/03/18 05:17:54;;;;;;;;;1.00;1.00;14.50;99.90;;;;;;5068170;28;11389;-48
2022/03/18 05:20:24;;;;;;;;;2.25;1.50;14.50;99.90;;;;;;5072204;28;12455;-44
2022/03/18 05:22:54;;;;;;;;;1.00;1.00;14.50;99.90;;;;;;5086556;28;11477;-48
2022/03/18 05:25:24;;;;;;;;;1.50;1.00;14.50;99.90;;;;;;5079493;28;11148;-48
2022/03/18 05:27:55;;;;;;;;;1.00;1.00;14.50;99.90;;;;;;5080767;28;11179;-47
2022/03/18 05:30:26;;;;;;;;;2.00;2.00;14.50;99.90;;;;;;5072930;28;11277;-45
2022/03/18 05:32:57;;;;;;;;;3.75;2.25;14.40;99.90;;;;;;5078181;28;11444;-46
2022/03/18 05:35:28;;;;;;;;;0.75;0.75;14.40;99.90;;;;;;5083735;28;11438;-47
2022/03/18 05:37:59;;;;;;;;;1.75;1.50;14.40;99.90;;;;;;5081988;28;11388;-47
2022/03/18 05:40:31;;;;;;;;;1.00;1.00;14.40;99.90;;;;;;5073856;28;11424;-46
2022/03/18 05:43:03;;;;;;;;;2.75;2.75;14.40;99.90;;;;;;5085016;28;11448;-45
2022/03/18 05:45:33;;;;;;;;;1.00;1.00;14.40;99.90;;;;;;5077706;28;11479;-45
2022/03/18 05:48:07;;;;;;;;;3.00;1.25;14.30;99.90;;;;;;5077760;28;12014;-47
2022/03/18 05:50:38;;;;;;;;;3.50;2.00;14.30;99.90;;;;;;5073185;28;11255;-48
2022/03/18 05:53:09;;;;;;;;;3.00;2.00;14.30;99.90;;;;;;5074711;28;11537;-49
2022/03/18 05:58:29;;;;;;;;;2.75;2.75;14.20;99.90;;;;;;5071154;28;11440;-47
2022/03/18 06:01:00;;;;;;;;;3.00;3.00;14.20;99.90;;;;;;5072926;28;11460;-46
2022/03/18 06:03:30;;;;;;;;;1.50;1.50;14.10;99.90;;;;;;5084225;28;11608;-49
2022/03/18 06:06:00;;;;;;;;;5.75;4.25;14.10;99.90;;;;;;5077667;27;11501;-46
2022/03/18 06:14:14;;;;;;;;;4.00;4.00;14.10;99.90;;;;;;5082505;28;11470;-47
2022/03/18 06:16:49;;;;;;;;;4.50;3.00;14.00;99.90;;;;;;5073549;28;11400;-45
2022/03/18 06:19:20;;;;;;;;;3.00;2.50;14.00;99.90;;;;;;5072673;28;11411;-47
2022/03/18 06:21:52;;;;;;;;;3.00;3.00;14.00;99.90;;;;;;5078622;28;11467;-46
2022/03/18 06:24:23;;;;;;;;;2.00;2.00;14.00;99.90;;;;;;5075853;28;11423;-44
2022/03/18 06:26:54;;;;;;;;;2.25;2.25;13.90;99.90;;;;;;5075985;28;11451;-45
2022/03/18 06:29:24;;;;;;;;;3.00;3.00;13.90;99.90;;;;;;5075379;28;11455;-47
2022/03/18 06:31:56;;;;;;;;;1.00;1.00;13.90;99.90;;;;;;5075443;28;12231;-45
2022/03/18 06:34:26;;;;;;;;;2.00;2.00;13.90;99.90;;;;;;5082946;28;11427;-46
2022/03/18 06:36:57;;;;;;;;;3.50;3.50;13.90;99.90;;;;;;5085472;28;11437;-46
2022/03/18 06:39:29;;;;;;;;;1.75;1.75;13.90;99.90;;;;;;5083468;28;11455;-48
2022/03/18 06:42:01;;;;;;;;;3.50;2.00;13.90;99.90;;;;;;5080822;28;11454;-47
2022/03/18 06:44:31;;;;;;;;;3.00;3.00;13.90;99.90;;;;;;5077105;28;11473;-45
2022/03/18 06:47:01;;;;;;;;;4.00;2.25;13.80;99.90;;;;;;5073863;28;11535;-49
2022/03/18 06:49:32;;;;;;;;;3.50;3.50;13.80;99.90;;;;;;5070916;28;11437;-49
2022/03/18 06:52:04;;;;;;;;;2.50;2.50;13.80;99.90;;;;;;5075424;28;11446;-49
2022/03/18 06:54:34;;;;;;;;;1.00;1.00;13.80;99.90;;;;;;5069637;28;11464;-44
2022/03/18 06:57:04;;;;;;;;;3.00;2.00;13.80;99.90;;;;;;5079760;28;11424;-44
2022/03/18 06:59:36;;;;;;;;;1.75;1.00;13.70;99.90;;;;;;5074814;27;11480;-46
2022/03/18 07:02:07;;;;;;;;;3.00;3.00;13.70;99.90;;;;;;5084509;28;11433;-46
2022/03/18 07:04:37;;;;;;;;;5.00;3.00;13.70;99.90;;;;;;5066983;28;11601;-47
2022/03/18 07:07:08;;;;;;;;;1.75;1.75;13.70;99.90;;;;;;5075207;28;11931;-46
2022/03/18 07:09:39;;;;;;;;;2.25;2.25;13.60;99.90;;;;;;5070525;28;11408;-46
2022/03/18 07:12:10;;;;;;;;;1.00;1.00;13.60;99.90;;;;;;5068164;28;11456;-47
2022/03/18 07:14:41;;;;;;;;;2.50;2.50;13.60;99.90;;;;;;5065177;28;11481;-47
2022/03/18 07:20:04;;;;;;;;;3.75;2.75;13.50;99.90;;;;;;5066036;28;11444;-48
2022/03/18 07:22:35;;;;;;;;;2.25;2.25;13.50;99.90;;;;;;5074340;28;11454;-48
2022/03/18 07:25:06;;;;;;;;;2.00;2.00;13.50;99.90;;;;;;5075350;28;11430;-45
2022/03/18 07:27:37;;;;;;;;;2.25;2.25;13.40;99.90;;;;;;5078290;28;11446;-46
2022/03/18 07:30:08;;;;;;;;;2.00;2.00;13.40;99.90;;;;;;5074393;28;11780;-48
2022/03/18 07:32:39;;;;;;;;;4.50;4.50;13.40;99.90;;;;;;5076181;28;11508;-47
2022/03/18 07:35:10;;;;;;;;;1.50;1.00;13.40;99.90;;;;;;5075398;28;11440;-46
2022/03/18 07:37:42;;;;;;;;;3.00;3.00;13.40;99.90;;;;;;5074585;28;11456;-47
2022/03/18 07:40:14;;;;;;;;;2.00;2.00;13.30;99.90;;;;;;5075541;28;11586;-47
2022/03/18 07:42:49;;;;;;;;;1.00;1.00;13.30;99.90;;;;;;5071512;28;11468;-47
2022/03/18 07:45:26;;;;;;;;;1.75;1.75;13.30;99.90;;;;;;5074995;28;11410;-47
2022/03/18 07:47:59;;;;;;;;;3.75;3.75;13.30;99.90;;;;;;5064890;28;11418;-46
2022/03/18 07:50:32;;;;;;;;;2.00;2.00;13.20;99.90;;;;;;5081668;28;12095;-47
2022/03/18 07:53:08;;;;;;;;;2.50;1.00;13.20;99.90;;;;;;5067132;28;11417;-45
2022/03/18 07:55:40;;;;;;;;;2.75;2.75;13.10;99.90;;;;;;5080088;28;11478;-48
2022/03/18 07:58:11;;;;;;;;;3.00;3.00;13.10;99.90;;;;;;5075517;28;12198;-45
2022/03/18 08:00:43;;;;;;;;;2.75;2.75;13.10;99.90;;;;;;5070461;28;11412;-46
2022/03/18 08:03:12;;;;;;;;;2.25;2.25;13.10;99.90;;;;;;5076376;28;11491;-47
2022/03/18 08:05:42;;;;;;;;;1.50;1.50;13.00;99.90;;;;;;5075522;28;11500;-45
2022/03/18 08:08:14;;;;;;;;;1.50;1.50;13.00;99.90;;;;;;5067296;28;11430;-48
2022/03/18 08:10:44;;;;;;;;;3.00;3.00;13.00;99.90;;;;;;5080676;28;11890;-44
2022/03/18 08:13:18;;;;;;;;;1.50;1.50;13.00;99.90;;;;;;5073206;28;11448;-46
2022/03/18 08:15:48;;;;;;;;;1.75;1.75;13.00;99.90;;;;;;5074550;28;11433;-44
2022/03/18 08:18:20;;;;;;;;;2.00;1.25;13.00;99.90;;;;;;5066068;28;11423;-50
2022/03/18 08:20:52;;;;;;;;;3.00;1.00;13.00;99.90;;;;;;5078138;28;12032;-45
2022/03/18 08:23:23;;;;;;;;;1.25;1.25;13.00;99.90;;;;;;5072297;28;11474;-48
2022/03/18 08:25:53;;;;;;;;;3.00;2.00;12.90;99.90;;;;;;5070629;28;11425;-46
2022/03/18 08:28:24;;;;;;;;;2.00;2.00;13.00;99.90;;;;;;5070512;28;11448;-46
2022/03/18 08:30:53;;;;;;;;;1.25;1.25;13.00;99.90;;;;;;5065230;28;11438;-45
2022/03/18 08:33:24;;;;;;;;;0.00;0.00;12.90;99.90;;;;;;5068539;28;11439;-45
2022/03/18 08:35:55;;;;;;;;;2.00;2.00;12.90;99.90;;;;;;5074018;28;12207;-46
2022/03/18 08:38:26;;;;;;;;;2.75;1.50;12.90;99.90;;;;;;5072743;28;11387;-47
2022/03/18 08:40:57;;;;;;;;;0.75;0.50;12.80;99.90;;;;;;5068639;28;11442;-45
2022/03/18 08:43:29;;;;;;;;;3.00;1.50;12.80;99.90;;;;;;5073289;28;11558;-47
2022/03/18 08:46:00;;;;;;;;;1.00;1.00;12.70;99.90;;;;;;5068026;28;12238;-46
2022/03/18 08:48:32;;;;;;;;;2.75;2.75;12.70;99.90;;;;;;5069439;28;11436;-48
2022/03/18 08:51:01;;;;;;;;;2.75;2.75;12.70;99.90;;;;;;5066775;28;11455;-47
2022/03/18 08:53:31;;;;;;;;;2.50;2.50;12.70;99.90;;;;;;5072779;28;11573;-45
2022/03/18 08:56:01;;;;;;;;;1.00;1.00;12.60;99.90;;;;;;5077357;28;11415;-48
2022/03/18 08:58:33;;;;;;;;;0.75;0.75;12.60;99.90;;;;;;5077826;28;11594;-45
2022/03/18 09:01:02;;;;;;;;;1.00;1.00;12.70;99.90;;;;;;5072480;28;11490;-44
2022/03/18 09:03:33;;;;;;;;;2.00;1.25;12.70;99.90;;;;;;5068788;28;11613;-49
2022/03/18 09:06:06;;;;;;;;;1.25;1.25;12.70;99.90;;;;;;5071891;27;11493;-47
2022/03/18 09:08:37;;;;;;;;;1.25;1.25;12.60;99.90;;;;;;5065294;28;12334;-47
2022/03/18 09:11:08;;;;;;;;;1.00;1.00;12.60;99.90;;;;;;5067698;28;12210;-45
2022/03/18 09:13:39;;;;;;;;;1.00;1.00;12.50;99.90;;;;;;5067771;28;11555;-49
2022/03/18 09:16:10;;;;;;;;;3.00;1.00;12.50;99.90;;;;;;5070848;28;11497;-46
2022/03/18 09:19:01;;;;;;;;;2.00;1.50;12.50;99.90;;;;;;5077532;28;11484;-48
2022/03/18 09:21:32;;;;;;;;;1.00;1.00;12.50;99.90;;;;;;5076211;28;12270;-49
2022/03/18 09:24:04;;;;;;;;;1.00;1.00;12.50;99.90;;;;;;5071688;28;11523;-47
2022/03/18 09:26:34;;;;;;;;;0.00;0.00;12.50;99.90;;;;;;5072595;28;11480;-46
2022/03/18 09:29:05;;;;;;;;;2.00;2.00;12.50;99.90;;;;;;5074655;28;12213;-45
2022/03/18 09:31:36;;;;;;;;;3.50;2.25;12.40;99.90;;;;;;5075508;28;11670;-47
2022/03/18 09:34:08;;;;;;;;;1.00;1.00;12.30;99.90;;;;;;5072351;28;11496;-45
2022/03/18 09:36:39;;;;;;;;;2.00;2.00;12.30;99.90;;;;;;5074636;28;11593;-46
2022/03/18 09:39:14;;;;;;;;;1.00;1.00;12.30;99.90;;;;;;5081569;28;11488;-48
2022/03/18 09:41:44;;;;;;;;;0.75;0.75;12.30;99.90;;;;;;5074173;28;11478;-47
2022/03/18 09:44:14;;;;;;;;;0.75;0.75;12.30;99.90;;;;;;5071929;28;11495;-45
2022/03/18 09:46:50;;;;;;;;;1.75;1.75;12.30;99.90;;;;;;5074298;28;11472;-47
2022/03/18 09:49:22;;;;;;;;;3.25;3.00;12.20;99.90;;;;;;5069937;28;13549;-45
2022/03/18 09:51:52;;;;;;;;;1.00;1.00;12.20;99.90;;;;;;5079966;28;11546;-45
2022/03/18 09:54:29;;;;;;;;;2.75;2.75;12.20;99.90;;;;;;5076888;28;11499;-48
2022/03/18 09:57:01;;;;;;;;;3.00;1.00;12.20;99.90;;;;;;5069433;28;11508;-45
2022/03/18 09:59:31;;;;;;;;;2.75;2.00;12.20;99.90;;;;;;5074002;28;11466;-45
2022/03/18 10:02:41;;;;;;;;;2.00;2.00;12.20;99.90;;;;;;5069979;28;11537;-47
2022/03/18 10:05:13;;;;;;;;;2.25;1.50;12.20;99.90;;;;;;5030683;28;11573;-48
2022/03/18 10:07:56;;;;;;;;;1.75;1.75;12.10;99.90;;;;;;5036456;28;12253;-46
2022/03/18 10:10:28;;;;;;;;;2.00;2.00;12.10;99.90;;;;;;5061528;27;11481;-45
2022/03/18 10:13:03;;;;;;;;;1.00;1.00;12.10;99.90;;;;;;5077610;28;11622;-46
2022/03/18 10:15:34;;;;;;;;;2.00;2.00;12.00;99.90;;;;;;5068852;28;11552;-48
2022/03/18 10:18:06;;;;;;;;;0.75;0.75;12.00;99.90;;;;;;5072001;28;11533;-49
2022/03/18 10:20:39;;;;;;;;;4.50;2.00;12.00;99.90;;;;;;5067023;27;11502;-48
2022/03/18 10:23:24;;;;;;;;;3.75;3.75;12.00;99.90;;;;;;5069141;28;11547;-46
2022/03/18 10:25:58;;;;;;;;;2.00;2.00;11.90;99.90;;;;;;5070901;28;11517;-46
2022/03/18 10:28:37;;;;;;;;;4.00;1.00;11.90;99.90;;;;;;5076044;28;11533;-47
2022/03/18 10:31:25;;;;;;;;;1.75;1.75;11.90;99.90;;;;;;5076520;28;11513;-46
2022/03/18 10:39:42;;;;;;;;;1.75;1.75;11.80;99.90;;;;;;5076863;28;11489;-46
2022/03/18 10:42:16;;;;;;;;;1.00;1.00;11.80;99.90;;;;;;5066131;28;12204;-45
2022/03/18 10:44:59;;;;;;;;;2.00;1.75;11.80;99.90;;;;;;5072261;28;11478;-48
2022/03/18 10:47:42;;;;;;;;;2.25;1.00;11.80;99.90;;;;;;5074446;28;11600;-46
2022/03/18 10:50:21;;;;;;;;;1.25;1.25;11.80;99.90;;;;;;5074914;28;11457;-47
2022/03/18 10:53:07;;;;;;;;;0.00;0.00;11.70;99.90;;;;;;5067880;28;11534;-47
2022/03/18 10:55:39;;;;;;;;;7.00;5.67;11.70;99.90;;;;;;5079582;28;11562;-45
2022/03/18 10:58:14;;;;;;;;;8.67;8.67;11.70;99.90;;;;;;5072455;28;11514;-47
2022/03/18 11:00:50;;;;;;;;;13.00;13.00;11.70;99.90;;;;;;5079715;28;8905;-46
2022/03/18 11:03:25;;;;;;;;;15.33;15.33;11.70;99.90;;;;;;5063262;28;9586;-46
2022/03/18 11:05:58;;;;;;;;;21.67;21.67;11.70;99.90;;;;;;5071886;28;8837;-45
2022/03/18 11:08:35;;;;;;;;;26.33;26.33;11.70;99.90;;;;;;5070773;28;8821;-48
2022/03/18 11:11:14;;;;;;;;;27.67;27.33;11.70;99.90;;;;;;5065589;28;8870;-47
2022/03/18 11:14:00;;;;;;;;;40.67;37.00;11.60;99.90;;;;;;5073528;28;8899;-47
2022/03/18 11:16:33;;;;;;;;;52.67;45.33;11.60;99.90;;;;;;5072025;28;9413;-44
2022/03/18 11:19:08;;;;;;;;;50.00;43.00;11.60;99.90;;;;;;5065018;28;8845;-45
2022/03/18 11:21:39;;;;;;;;;34.33;33.33;11.60;99.90;;;;;;5077869;28;9599;-46
2022/03/18 11:24:11;;;;;;;;;30.33;30.33;11.60;99.90;;;;;;5065861;28;9006;-48
2022/03/18 11:26:49;;;;;;;;;26.33;26.33;11.60;99.90;;;;;;5066221;27;8990;-48
2022/03/18 11:29:24;;;;;;;;;25.33;25.33;11.50;99.90;;;;;;5068862;28;8880;-46
2022/03/18 11:32:17;;;;;;;;;41.50;37.75;11.50;99.90;;;;;;5066829;28;8857;-46
2022/03/18 11:34:57;;;;;;;;;43.75;38.25;11.40;99.90;;;;;;5069932;28;8865;-45
2022/03/18 11:37:29;;;;;;;;;46.00;41.25;11.50;99.90;;;;;;5066482;28;8872;-45
2022/03/18 11:40:21;;;;;;;;;42.25;36.75;11.40;99.90;;;;;;5079660;28;8860;-48
2022/03/18 11:42:51;;;;;;;;;52.00;45.00;11.40;99.90;;;;;;5073210;28;8862;-47
2022/03/18 11:45:37;;;;;;;;;55.00;46.00;11.30;99.90;;;;;;5072002;28;8831;-46
2022/03/18 11:48:36;;;;;;;;;20.67;20.67;11.30;99.90;;;;;;5069603;28;9009;-48
2022/03/18 11:51:42;;;;;;;;;17.00;17.00;11.30;99.90;;;;;;5071281;28;9598;-48
2022/03/18 11:54:27;;;;;;;;;19.67;19.67;11.30;99.90;;;;;;5065109;28;8920;-46
2022/03/18 11:56:57;;;;;;;;;22.67;22.67;11.30;99.90;;;;;;5073562;28;11534;-47
2022/03/18 11:59:28;;;;;;;;;20.00;20.00;11.30;99.90;;;;;;5074041;28;11811;-45
2022/03/18 12:02:01;;;;;;;;;19.25;19.25;11.30;99.90;;;;;;5069398;28;11546;-43
2022/03/18 12:04:42;;;;;;;;;21.75;20.50;11.30;99.90;;;;;;5075286;27;11525;-44
2022/03/18 12:07:33;;;;;;;;;18.00;18.00;11.20;99.90;;;;;;5077661;28;11575;-45
2022/03/18 12:10:08;;;;;;;;;16.50;16.50;11.20;99.90;;;;;;5067967;28;11680;-44
2022/03/18 12:12:56;;;;;;;;;19.75;19.75;11.10;99.90;;;;;;5068435;28;11624;-43
2022/03/18 12:15:26;;;;;;;;;16.50;16.50;11.10;99.90;;;;;;5068072;28;11690;-47
2022/03/18 12:17:58;;;;;;;;;13.00;13.00;11.10;99.90;;;;;;5069816;28;11685;-47
2022/03/18 12:20:37;;;;;;;;;15.25;14.50;11.10;99.90;;;;;;5063746;28;11542;-49
2022/03/18 12:23:10;;;;;;;;;13.25;13.25;11.10;99.90;;;;;;5078932;28;11566;-46
2022/03/18 12:25:40;;;;;;;;;13.50;13.25;11.10;99.90;;;;;;5065928;28;12200;-46
2022/03/18 12:28:10;;;;;;;;;13.75;13.75;11.10;99.90;;;;;;5069035;28;11582;-47
2022/03/18 12:30:41;;;;;;;;;13.25;13.25;11.10;99.90;;;;;;5067190;28;11573;-48
2022/03/18 12:33:11;;;;;;;;;15.50;15.50;11.10;99.90;;;;;;5068215;28;11536;-45
2022/03/18 12:35:44;;;;;;;;;13.50;13.50;11.10;99.90;;;;;;5071590;28;12098;-45
2022/03/18 12:38:17;;;;;;;;;12.00;12.00;11.10;99.90;;;;;;5076108;28;11719;-46
2022/03/18 12:40:59;;;;;;;;;10.75;10.75;11.10;99.90;;;;;;5070606;28;12397;-45
2022/03/18 12:43:33;;;;;;;;;10.50;10.50;11.10;99.90;;;;;;5073428;28;11681;-45
2022/03/18 12:46:04;;;;;;;;;10.50;10.50;11.10;99.90;;;;;;5073009;28;11726;-48
2022/03/18 12:48:35;;;;;;;;;9.75;9.75;11.00;99.90;;;;;;5070421;28;11692;-44
2022/03/18 12:51:07;;;;;;;;;10.50;10.50;11.00;99.90;;;;;;5075208;28;11568;-48
2022/03/18 12:53:38;;;;;;;;;10.00;10.00;11.00;99.90;;;;;;5086430;28;11517;-44
2022/03/18 12:56:22;;;;;;;;;9.50;9.50;10.90;99.90;;;;;;5071791;28;12038;-47
2022/03/18 12:58:57;;;;;;;;;6.75;6.75;10.90;99.90;;;;;;5079124;28;11636;-44
2022/03/18 13:01:58;;;;;;;;;4.50;2.50;10.90;99.90;;;;;;5063550;28;11592;-44
2022/03/18 13:04:28;;;;;;;;;2.50;2.50;10.90;99.90;;;;;;5071958;28;11525;-46
2022/03/18 13:07:01;;;;;;;;;2.25;2.25;10.90;99.90;;;;;;5065659;27;11488;-46
2022/03/18 13:09:52;;;;;;;;;2.50;2.50;10.90;99.90;;;;;;5069790;28;11619;-45
2022/03/18 13:12:37;;;;;;;;;2.50;2.50;10.90;99.90;;;;;;5072877;28;12162;-45
2022/03/18 13:15:15;;;;;;;;;1.00;1.00;10.80;99.90;;;;;;5071254;28;11670;-47
2022/03/18 13:17:48;;;;;;;;;1.00;1.00;10.80;99.90;;;;;;5074912;28;11504;-45
2022/03/18 13:20:24;;;;;;;;;1.75;1.75;10.80;99.90;;;;;;5077539;28;11534;-47
2022/03/18 13:22:56;;;;;;;;;1.00;1.00;10.80;99.90;;;;;;5074426;28;11512;-45
2022/03/18 13:25:28;;;;;;;;;0.25;0.25;10.80;99.90;;;;;;5064964;28;12642;-45
2022/03/18 13:27:59;;;;;;;;;1.00;1.00;10.80;99.90;;;;;;5074857;28;11500;-46
2022/03/18 13:33:19;;;;;;;;;1.00;1.00;10.70;99.90;;;;;;5076616;28;11505;-44
2022/03/18 13:35:56;;;;;;;;;1.00;1.00;10.70;99.90;;;;;;5076004;28;11489;-48
2022/03/18 13:38:26;;;;;;;;;1.75;1.75;10.70;99.90;;;;;;5080091;28;11671;-49
2022/03/18 13:41:14;;;;;;;;;2.00;2.00;10.70;99.90;;;;;;5076493;28;11499;-47